Time;durP1;ratioP1;P1;durP2;ratioP2;P2;SDS_P1;SDS_P2;PMS_P1;PMS_P2;Temp;Humidity;BMP_temperature;BMP_pressure;BME280_temperature;BME280_humidity;BME280_pressure;Samples;Min_cycle;Max_cycle;Signal;HPM_P1;HPM_P2
2023/07/19 00:00:38;;;;;;;;;;;26.30;53.80;;;;;;4982622;28;19929;-74
2023/07/19 00:03:05;;;;;;;;;;;26.30;53.80;;;;;;4982238;28;19980;-75
2023/07/19 00:05:31;;;;;;;;;;;26.30;53.90;;;;;;4982547;28;19926;-75
2023/07/19 00:07:58;;;;;;;;;;;26.20;53.90;;;;;;4984977;28;19937;-73
2023/07/19 00:10:26;;;;;;;;;;;26.20;53.90;;;;;;4985746;28;19926;-73
2023/07/19 00:12:52;;;;;;;;;;;26.20;54.00;;;;;;4984493;28;19937;-75
2023/07/19 00:15:19;;;;;;;;;;;26.10;54.00;;;;;;4984868;28;19949;-75
2023/07/19 00:17:46;;;;;;;;;;;26.10;54.00;;;;;;4982974;28;20325;-74
2023/07/19 00:20:12;;;;;;;;;;;26.10;54.00;;;;;;4982418;28;19926;-74
2023/07/19 00:22:39;;;;;;;;;;;26.00;54.00;;;;;;4987682;28;19926;-73
2023/07/19 00:25:06;;;;;;;;;;;26.00;54.20;;;;;;4987147;28;20316;-74
2023/07/19 00:27:34;;;;;;;;;;;26.00;54.70;;;;;;4990202;28;19932;-75
2023/07/19 00:30:01;;;;;;;;;;;26.00;54.10;;;;;;4987089;28;19929;-74
2023/07/19 00:32:27;;;;;;;;;;;25.90;54.10;;;;;;4988257;28;19937;-75
2023/07/19 00:34:54;;;;;;;;;;;25.90;54.20;;;;;;4987802;28;19932;-76
2023/07/19 00:37:20;;;;;;;;;;;25.90;54.30;;;;;;4983366;28;19944;-74
2023/07/19 00:39:47;;;;;;;;;;;25.90;54.40;;;;;;4985625;28;21664;-74
2023/07/19 00:42:13;;;;;;;;;;;25.80;54.40;;;;;;4984880;28;19937;-74
2023/07/19 00:44:42;;;;;;;;;;;25.80;54.50;;;;;;4985830;28;19933;-74
2023/07/19 00:47:08;;;;;;;;;;;25.80;54.50;;;;;;4983938;28;19938;-74
2023/07/19 00:49:37;;;;;;;;;;;25.70;54.60;;;;;;4981196;28;19937;-75
2023/07/19 00:52:05;;;;;;;;;;;25.70;54.60;;;;;;4983366;28;19934;-74
2023/07/19 00:54:31;;;;;;;;;;;25.70;54.70;;;;;;4982726;28;19977;-74
2023/07/19 00:56:58;;;;;;;;;;;25.60;54.70;;;;;;4982402;28;19940;-74
2023/07/19 00:59:27;;;;;;;;;;;25.60;54.80;;;;;;4985283;28;19930;-75
2023/07/19 01:01:55;;;;;;;;;;;25.60;55.00;;;;;;4984684;28;19934;-74
2023/07/19 01:04:24;;;;;;;;;;;25.50;55.00;;;;;;4981431;28;20387;-74
2023/07/19 01:06:51;;;;;;;;;;;25.50;55.10;;;;;;4979761;28;20023;-74
2023/07/19 01:09:17;;;;;;;;;;;25.50;55.10;;;;;;4984799;28;19933;-75
2023/07/19 01:11:44;;;;;;;;;;;25.40;55.20;;;;;;4980717;28;19930;-74
2023/07/19 01:14:10;;;;;;;;;;;25.40;55.30;;;;;;4981046;28;19937;-71
2023/07/19 01:16:37;;;;;;;;;;;25.40;55.50;;;;;;4981745;28;19933;-75
2023/07/19 01:19:05;;;;;;;;;;;25.30;55.60;;;;;;4976044;28;19926;-74
2023/07/19 01:21:31;;;;;;;;;;;25.30;55.70;;;;;;4983516;28;19952;-73
2023/07/19 01:23:59;;;;;;;;;;;25.30;55.80;;;;;;4983829;28;20391;-73
2023/07/19 01:26:26;;;;;;;;;;;25.20;55.90;;;;;;4985560;28;20303;-73
2023/07/19 01:28:52;;;;;;;;;;;25.20;56.00;;;;;;4986580;28;19940;-73
2023/07/19 01:31:19;;;;;;;;;;;25.20;56.10;;;;;;4981522;28;20004;-74
2023/07/19 01:33:45;;;;;;;;;;;25.20;56.20;;;;;;4982127;28;19957;-73
2023/07/19 01:36:12;;;;;;;;;;;25.10;56.30;;;;;;4980992;28;19985;-74
2023/07/19 01:38:41;;;;;;;;;;;25.10;56.40;;;;;;4984003;28;21560;-74
2023/07/19 01:41:08;;;;;;;;;;;25.10;56.50;;;;;;4980657;28;19938;-74
2023/07/19 01:43:35;;;;;;;;;;;25.10;56.60;;;;;;4984307;28;19961;-73
2023/07/19 01:46:02;;;;;;;;;;;25.00;56.60;;;;;;4981960;28;20435;-74
2023/07/19 01:48:28;;;;;;;;;;;25.00;56.70;;;;;;4985125;28;19934;-73
2023/07/19 01:50:55;;;;;;;;;;;25.00;56.80;;;;;;4980995;28;20426;-74
2023/07/19 01:53:21;;;;;;;;;;;24.90;57.40;;;;;;4986691;28;19926;-74
2023/07/19 01:55:48;;;;;;;;;;;24.90;57.00;;;;;;4983729;28;19934;-74
2023/07/19 01:58:16;;;;;;;;;;;24.90;57.10;;;;;;4982395;28;19926;-73
2023/07/19 02:00:42;;;;;;;;;;;24.90;57.20;;;;;;4980924;28;19996;-74
2023/07/19 02:03:09;;;;;;;;;;;24.80;57.30;;;;;;4984342;28;20013;-73
2023/07/19 02:05:35;;;;;;;;;;;24.80;57.50;;;;;;4983964;28;20599;-74
2023/07/19 02:08:03;;;;;;;;;;;24.80;57.60;;;;;;4978840;28;19930;-74
2023/07/19 02:10:30;;;;;;;;;;;24.70;57.60;;;;;;4984113;28;19985;-73
2023/07/19 02:12:56;;;;;;;;;;;24.70;57.70;;;;;;4985302;28;21399;-74
2023/07/19 02:15:24;;;;;;;;;;;24.70;57.80;;;;;;4984880;28;19946;-75
2023/07/19 02:17:50;;;;;;;;;;;24.70;58.00;;;;;;4977938;28;20000;-74
2023/07/19 02:20:19;;;;;;;;;;;24.60;58.00;;;;;;4980947;28;19953;-74
2023/07/19 02:22:45;;;;;;;;;;;24.60;58.10;;;;;;4982765;28;19929;-73
2023/07/19 02:25:12;;;;;;;;;;;24.60;58.20;;;;;;4975134;28;19930;-72
2023/07/19 02:27:38;;;;;;;;;;;24.50;58.30;;;;;;4983309;28;19948;-73
2023/07/19 02:30:06;;;;;;;;;;;24.50;58.50;;;;;;4985537;28;20814;-73
2023/07/19 02:32:34;;;;;;;;;;;24.50;58.60;;;;;;4983202;28;19933;-73
2023/07/19 02:35:01;;;;;;;;;;;24.40;58.60;;;;;;4987351;28;19940;-73
2023/07/19 02:37:27;;;;;;;;;;;24.40;58.70;;;;;;4986599;28;19930;-73
2023/07/19 02:39:54;;;;;;;;;;;24.40;58.70;;;;;;4985386;28;19930;-74
2023/07/19 02:42:20;;;;;;;;;;;24.40;58.90;;;;;;4987004;28;19929;-74
2023/07/19 02:44:48;;;;;;;;;;;24.30;58.90;;;;;;4986919;28;19992;-73
2023/07/19 02:47:14;;;;;;;;;;;24.30;59.00;;;;;;4985590;28;19930;-74
2023/07/19 02:49:42;;;;;;;;;;;24.30;59.10;;;;;;4985264;28;20411;-74
2023/07/19 02:52:09;;;;;;;;;;;24.20;59.10;;;;;;4985589;28;19937;-74
2023/07/19 02:54:36;;;;;;;;;;;24.20;59.10;;;;;;4982229;28;19929;-74
2023/07/19 02:57:03;;;;;;;;;;;24.20;59.20;;;;;;4986058;28;20015;-73
2023/07/19 02:59:29;;;;;;;;;;;24.20;59.20;;;;;;4987237;28;19957;-74
2023/07/19 03:01:56;;;;;;;;;;;24.20;59.30;;;;;;4986171;28;19937;-74
2023/07/19 03:04:22;;;;;;;;;;;24.10;59.30;;;;;;4984756;28;19934;-73
2023/07/19 03:06:50;;;;;;;;;;;24.10;59.30;;;;;;4986824;28;20336;-74
2023/07/19 03:09:17;;;;;;;;;;;24.10;59.30;;;;;;4986227;28;20023;-74
2023/07/19 03:11:43;;;;;;;;;;;24.00;59.30;;;;;;4986338;28;19929;-74
2023/07/19 03:14:10;;;;;;;;;;;24.10;59.30;;;;;;4987132;28;19937;-74
2023/07/19 03:16:37;;;;;;;;;;;24.00;59.30;;;;;;4985471;28;20293;-74
2023/07/19 03:19:04;;;;;;;;;;;24.00;59.90;;;;;;4986632;28;19965;-73
2023/07/19 03:21:31;;;;;;;;;;;24.00;59.30;;;;;;4983179;28;19941;-73
2023/07/19 03:23:59;;;;;;;;;;;24.00;59.30;;;;;;4984808;28;19934;-75
2023/07/19 03:26:25;;;;;;;;;;;24.00;59.40;;;;;;4986143;28;19937;-73
2023/07/19 03:28:52;;;;;;;;;;;24.00;59.40;;;;;;4987941;28;19929;-74
2023/07/19 03:31:18;;;;;;;;;;;23.90;59.40;;;;;;4984962;28;19930;-73
2023/07/19 03:33:45;;;;;;;;;;;23.90;59.50;;;;;;4982248;28;19930;-74
2023/07/19 03:36:11;;;;;;;;;;;23.90;59.50;;;;;;4979501;28;19930;-73
2023/07/19 03:38:38;;;;;;;;;;;23.90;59.50;;;;;;4983354;28;19929;-74
2023/07/19 03:41:07;;;;;;;;;;;23.80;59.50;;;;;;4979118;28;19937;-74
2023/07/19 03:43:33;;;;;;;;;;;23.80;59.50;;;;;;4984504;28;19984;-74
2023/07/19 03:46:00;;;;;;;;;;;23.80;59.60;;;;;;4982213;28;19972;-74
2023/07/19 03:48:26;;;;;;;;;;;23.80;59.60;;;;;;4985228;28;20277;-73
2023/07/19 03:50:57;;;;;;;;;;;23.80;59.50;;;;;;4984673;28;19934;-74
2023/07/19 03:53:23;;;;;;;;;;;23.80;59.50;;;;;;4987336;28;19930;-73
2023/07/19 03:55:53;;;;;;;;;;;23.70;59.50;;;;;;4981482;28;19930;-74
2023/07/19 03:58:21;;;;;;;;;;;23.70;59.50;;;;;;4982531;28;20045;-74
2023/07/19 04:00:48;;;;;;;;;;;23.70;59.50;;;;;;4984937;28;19926;-73
2023/07/19 04:03:15;;;;;;;;;;;23.70;59.50;;;;;;4985369;28;19937;-73
2023/07/19 04:05:41;;;;;;;;;;;23.70;59.40;;;;;;4986452;28;20399;-73
2023/07/19 04:08:08;;;;;;;;;;;23.70;59.40;;;;;;4985248;28;19934;-74
2023/07/19 04:10:34;;;;;;;;;;;23.70;59.50;;;;;;4985294;28;19930;-74
2023/07/19 04:13:01;;;;;;;;;;;23.70;59.50;;;;;;4982493;28;19959;-74
2023/07/19 04:15:28;;;;;;;;;;;23.60;59.50;;;;;;4984535;28;19933;-74
2023/07/19 04:17:55;;;;;;;;;;;23.60;59.50;;;;;;4985591;28;19936;-74
2023/07/19 04:20:23;;;;;;;;;;;23.60;59.50;;;;;;4985930;28;20063;-73
2023/07/19 04:22:49;;;;;;;;;;;23.60;59.50;;;;;;4984268;28;20016;-73
2023/07/19 04:25:16;;;;;;;;;;;23.60;59.50;;;;;;4984286;28;19942;-74
2023/07/19 04:27:43;;;;;;;;;;;23.50;59.50;;;;;;4984838;28;19934;-72
2023/07/19 04:30:09;;;;;;;;;;;23.50;59.50;;;;;;4981979;28;19929;-74
2023/07/19 04:32:37;;;;;;;;;;;23.50;59.60;;;;;;4982882;28;19930;-73
2023/07/19 04:35:04;;;;;;;;;;;23.50;59.50;;;;;;4985372;28;19940;-73
2023/07/19 04:37:31;;;;;;;;;;;23.50;59.60;;;;;;4985859;28;19938;-73
2023/07/19 04:39:58;;;;;;;;;;;23.50;59.60;;;;;;4986090;28;19930;-74
2023/07/19 04:42:24;;;;;;;;;;;23.50;59.60;;;;;;4983668;28;19966;-74
2023/07/19 04:44:51;;;;;;;;;;;23.40;59.60;;;;;;4982955;28;19934;-73
2023/07/19 04:47:17;;;;;;;;;;;23.40;59.70;;;;;;4984397;28;20717;-73
2023/07/19 04:49:45;;;;;;;;;;;23.40;59.70;;;;;;4976959;28;20020;-74
2023/07/19 04:52:12;;;;;;;;;;;23.40;59.70;;;;;;4982524;28;19945;-73
2023/07/19 04:54:38;;;;;;;;;;;23.40;59.70;;;;;;4984595;28;19934;-74
2023/07/19 04:57:05;;;;;;;;;;;23.40;60.40;;;;;;4977985;28;19937;-75
2023/07/19 04:59:32;;;;;;;;;;;23.20;60.90;;;;;;4985739;28;19937;-75
2023/07/19 05:01:58;;;;;;;;;;;23.10;61.10;;;;;;4980966;28;19945;-75
2023/07/19 05:04:25;;;;;;;;;;;23.10;61.10;;;;;;4983665;28;19930;-75
2023/07/19 05:06:53;;;;;;;;;;;23.10;61.30;;;;;;4984307;28;19933;-75
2023/07/19 05:09:20;;;;;;;;;;;23.00;61.30;;;;;;4978081;28;19937;-76
2023/07/19 05:11:47;;;;;;;;;;;23.00;61.50;;;;;;4984814;28;19961;-75
2023/07/19 05:14:14;;;;;;;;;;;23.00;61.50;;;;;;4984896;28;19933;-75
2023/07/19 05:16:40;;;;;;;;;;;23.00;61.50;;;;;;4985628;28;20012;-75
2023/07/19 05:19:07;;;;;;;;;;;23.00;61.60;;;;;;4978305;28;19984;-75
2023/07/19 05:21:34;;;;;;;;;;;23.00;61.70;;;;;;4980229;28;19930;-76
2023/07/19 05:24:02;;;;;;;;;;;23.00;61.70;;;;;;4984433;28;20218;-75
2023/07/19 05:26:28;;;;;;;;;;;23.00;61.70;;;;;;4985426;28;19929;-75
2023/07/19 05:28:55;;;;;;;;;;;23.00;61.70;;;;;;4985543;28;19976;-76
2023/07/19 05:31:21;;;;;;;;;;;23.00;61.80;;;;;;4985028;28;20652;-75
2023/07/19 05:33:48;;;;;;;;;;;23.00;61.80;;;;;;4985456;28;19974;-75
2023/07/19 05:36:15;;;;;;;;;;;22.90;61.80;;;;;;4978597;28;19930;-75
2023/07/19 05:38:41;;;;;;;;;;;22.90;61.90;;;;;;4981879;28;19965;-75
2023/07/19 05:41:09;;;;;;;;;;;23.00;62.20;;;;;;4983246;28;20021;-75
2023/07/19 05:43:36;;;;;;;;;;;23.00;62.20;;;;;;4982545;28;19929;-75
2023/07/19 05:46:03;;;;;;;;;;;22.90;62.30;;;;;;4981184;28;19926;-75
2023/07/19 05:48:30;;;;;;;;;;;22.90;62.40;;;;;;4984483;28;19929;-75
2023/07/19 05:50:56;;;;;;;;;;;22.90;62.30;;;;;;4984674;28;19930;-75
2023/07/19 05:53:23;;;;;;;;;;;22.90;62.40;;;;;;4982295;28;19930;-75
2023/07/19 05:55:49;;;;;;;;;;;22.90;62.30;;;;;;4972831;28;19993;-75
2023/07/19 05:58:17;;;;;;;;;;;22.90;62.40;;;;;;4984596;28;19940;-75
2023/07/19 06:00:44;;;;;;;;;;;22.90;62.50;;;;;;4983795;28;20379;-75
2023/07/19 06:03:11;;;;;;;;;;;22.90;62.40;;;;;;4987455;28;19929;-75
2023/07/19 06:05:38;;;;;;;;;;;22.90;62.40;;;;;;4985812;28;19941;-75
2023/07/19 06:08:05;;;;;;;;;;;22.90;62.60;;;;;;4985676;28;19929;-75
2023/07/19 06:10:31;;;;;;;;;;;22.90;62.50;;;;;;4988946;28;19933;-75
2023/07/19 06:12:58;;;;;;;;;;;22.90;62.60;;;;;;4991138;28;20319;-75
2023/07/19 06:15:26;;;;;;;;;;;23.00;63.00;;;;;;4983880;28;20475;-75
2023/07/19 06:17:53;;;;;;;;;;;23.00;63.00;;;;;;4991741;28;19934;-75
2023/07/19 06:20:19;;;;;;;;;;;22.90;63.00;;;;;;4989924;28;19929;-75
2023/07/19 06:22:46;;;;;;;;;;;23.00;63.30;;;;;;4988875;28;19934;-76
2023/07/19 06:25:12;;;;;;;;;;;22.90;63.30;;;;;;4989476;28;20555;-75
2023/07/19 06:27:39;;;;;;;;;;;23.00;63.40;;;;;;4990661;28;20020;-75
2023/07/19 06:30:06;;;;;;;;;;;23.00;63.30;;;;;;4990156;28;19936;-74
2023/07/19 06:32:34;;;;;;;;;;;23.00;63.40;;;;;;4990325;28;19933;-75
2023/07/19 06:35:01;;;;;;;;;;;23.00;63.40;;;;;;4985544;28;20182;-75
2023/07/19 06:37:27;;;;;;;;;;;23.00;63.60;;;;;;4983498;28;19929;-76
2023/07/19 06:39:54;;;;;;;;;;;23.00;63.70;;;;;;4986073;28;19934;-76
2023/07/19 06:42:20;;;;;;;;;;;23.00;63.60;;;;;;4985870;28;19933;-75
2023/07/19 06:44:48;;;;;;;;;;;23.00;63.70;;;;;;4990302;28;20347;-75
2023/07/19 06:47:14;;;;;;;;;;;23.00;63.80;;;;;;4989697;28;19988;-75
2023/07/19 06:49:42;;;;;;;;;;;23.10;63.80;;;;;;4985347;28;20060;-75
2023/07/19 06:52:09;;;;;;;;;;;23.00;63.80;;;;;;4983211;28;19933;-75
2023/07/19 06:54:36;;;;;;;;;;;23.10;63.70;;;;;;4987429;28;19940;-76
2023/07/19 06:57:02;;;;;;;;;;;23.10;64.00;;;;;;4985455;28;19971;-76
2023/07/19 06:59:29;;;;;;;;;;;23.10;64.20;;;;;;4990188;28;19929;-76
2023/07/19 07:01:55;;;;;;;;;;;23.10;64.10;;;;;;4990561;28;19977;-76
2023/07/19 07:04:22;;;;;;;;;;;23.10;64.10;;;;;;4987387;28;20358;-75
2023/07/19 07:06:50;;;;;;;;;;;23.10;63.90;;;;;;4989882;28;19934;-76
2023/07/19 07:09:16;;;;;;;;;;;23.20;64.10;;;;;;4989804;28;19930;-76
2023/07/19 07:11:43;;;;;;;;;;;23.20;64.00;;;;;;4993856;28;20399;-76
2023/07/19 07:14:10;;;;;;;;;;;23.20;64.00;;;;;;4987041;28;19976;-75
2023/07/19 07:16:36;;;;;;;;;;;23.20;64.20;;;;;;4983784;28;19934;-75
2023/07/19 07:19:04;;;;;;;;;;;23.20;64.00;;;;;;4980616;28;19977;-76
2023/07/19 07:21:31;;;;;;;;;;;23.30;64.00;;;;;;4982693;28;19937;-75
2023/07/19 07:23:59;;;;;;;;;;;23.30;64.10;;;;;;4985807;28;19930;-76
2023/07/19 07:26:25;;;;;;;;;;;23.30;63.90;;;;;;4985252;28;19934;-75
2023/07/19 07:28:52;;;;;;;;;;;23.30;63.80;;;;;;4987817;28;19937;-76
2023/07/19 07:31:18;;;;;;;;;;;23.30;63.90;;;;;;4982275;28;19934;-77
2023/07/19 07:33:45;;;;;;;;;;;23.30;64.00;;;;;;4987030;28;19937;-76
2023/07/19 07:36:11;;;;;;;;;;;23.30;63.80;;;;;;4986779;28;20445;-76
2023/07/19 07:38:38;;;;;;;;;;;23.40;63.80;;;;;;4982208;28;19953;-75
2023/07/19 07:41:06;;;;;;;;;;;23.40;63.90;;;;;;4984835;28;20271;-75
2023/07/19 07:43:32;;;;;;;;;;;23.40;63.90;;;;;;4986424;28;19956;-75
2023/07/19 07:45:59;;;;;;;;;;;23.40;63.80;;;;;;4981371;28;19984;-77
2023/07/19 07:48:26;;;;;;;;;;;23.40;63.70;;;;;;4987389;28;19952;-75
2023/07/19 07:50:53;;;;;;;;;;;23.40;63.50;;;;;;4979010;28;19930;-76
2023/07/19 07:53:19;;;;;;;;;;;23.40;63.40;;;;;;4987073;28;19929;-76
2023/07/19 07:55:46;;;;;;;;;;;23.50;63.30;;;;;;4983306;28;19930;-76
2023/07/19 07:58:14;;;;;;;;;;;23.50;63.30;;;;;;4980119;28;19930;-76
2023/07/19 08:00:41;;;;;;;;;;;23.50;63.20;;;;;;4984996;28;19953;-75
2023/07/19 08:03:07;;;;;;;;;;;23.50;63.20;;;;;;4982334;28;19933;-75
2023/07/19 08:05:34;;;;;;;;;;;23.50;63.10;;;;;;4985136;28;19984;-76
2023/07/19 08:08:01;;;;;;;;;;;23.50;63.00;;;;;;4987642;28;19930;-75
2023/07/19 08:10:28;;;;;;;;;;;23.60;62.80;;;;;;4987450;28;19933;-77
2023/07/19 08:12:54;;;;;;;;;;;23.60;62.60;;;;;;4981435;28;19934;-76
2023/07/19 08:15:23;;;;;;;;;;;23.70;62.50;;;;;;4979509;28;20450;-76
2023/07/19 08:17:50;;;;;;;;;;;23.60;62.30;;;;;;4978883;28;20747;-75
2023/07/19 08:20:16;;;;;;;;;;;23.70;62.10;;;;;;4984508;28;19929;-75
2023/07/19 08:22:43;;;;;;;;;;;23.70;61.80;;;;;;4982309;28;19942;-76
2023/07/19 08:25:09;;;;;;;;;;;23.80;61.60;;;;;;4981582;28;19984;-76
2023/07/19 08:27:36;;;;;;;;;;;23.80;61.10;;;;;;4985628;28;19930;-76
2023/07/19 08:30:05;;;;;;;;;;;23.80;60.70;;;;;;4985519;28;19933;-75
2023/07/19 08:32:33;;;;;;;;;;;23.80;60.50;;;;;;4983080;28;19976;-75
2023/07/19 08:35:00;;;;;;;;;;;23.90;60.60;;;;;;4981942;28;20299;-74
2023/07/19 08:37:27;;;;;;;;;;;23.90;60.30;;;;;;4984956;28;19959;-75
2023/07/19 08:39:53;;;;;;;;;;;23.90;60.10;;;;;;4985353;28;19930;-74
2023/07/19 08:42:20;;;;;;;;;;;23.90;59.90;;;;;;4983238;28;19941;-75
2023/07/19 08:44:47;;;;;;;;;;;24.00;59.60;;;;;;4986023;28;19940;-75
2023/07/19 08:47:14;;;;;;;;;;;24.00;59.60;;;;;;4984400;28;20500;-75
2023/07/19 08:49:43;;;;;;;;;;;24.00;59.60;;;;;;4979245;28;19937;-75
2023/07/19 08:52:09;;;;;;;;;;;24.00;59.20;;;;;;4980660;28;20000;-75
2023/07/19 08:54:36;;;;;;;;;;;24.10;59.10;;;;;;4983151;28;19946;-74
2023/07/19 08:57:04;;;;;;;;;;;24.10;58.90;;;;;;4980177;28;19929;-74
2023/07/19 08:59:30;;;;;;;;;;;24.20;58.70;;;;;;4983552;28;20368;-76
2023/07/19 09:01:57;;;;;;;;;;;24.20;58.10;;;;;;4979999;28;20408;-75
2023/07/19 09:04:23;;;;;;;;;;;24.20;58.20;;;;;;4983183;28;19930;-74
2023/07/19 09:06:51;;;;;;;;;;;24.30;58.00;;;;;;4984100;28;19929;-74
2023/07/19 09:09:18;;;;;;;;;;;24.30;57.70;;;;;;4985854;28;19937;-74
2023/07/19 09:11:46;;;;;;;;;;;24.30;57.40;;;;;;4989694;28;19940;-75
2023/07/19 09:14:13;;;;;;;;;;;24.40;56.40;;;;;;4983314;28;20396;-75
2023/07/19 09:16:40;;;;;;;;;;;24.50;56.10;;;;;;4984779;28;19937;-75
2023/07/19 09:19:08;;;;;;;;;;;24.50;55.30;;;;;;4986037;28;20014;-74
2023/07/19 09:21:36;;;;;;;;;;;24.50;55.40;;;;;;4981493;28;19933;-75
2023/07/19 09:24:05;;;;;;;;;;;24.60;55.30;;;;;;4982895;28;19972;-75
2023/07/19 09:26:43;;;;;;;;;;;24.60;55.30;;;;;;4981775;28;20017;-76
2023/07/19 09:29:11;;;;;;;;;;;24.60;55.10;;;;;;4983963;28;20044;-76
2023/07/19 09:31:49;;;;;;;;;;;24.60;54.40;;;;;;4983969;28;20462;-75
2023/07/19 09:34:16;;;;;;;;;;;24.70;54.40;;;;;;4983588;28;19934;-75
2023/07/19 09:36:43;;;;;;;;;;;24.70;54.60;;;;;;4981797;28;19980;-75
2023/07/19 09:39:11;;;;;;;;;;;24.80;54.50;;;;;;4981562;28;20633;-75
2023/07/19 09:41:38;;;;;;;;;;;24.80;54.20;;;;;;4974279;28;19934;-75
2023/07/19 09:44:09;;;;;;;;;;;24.90;54.00;;;;;;4984259;28;19984;-75
2023/07/19 09:46:37;;;;;;;;;;;24.90;53.90;;;;;;4982954;28;19929;-75
2023/07/19 09:49:03;;;;;;;;;;;25.00;53.30;;;;;;4983113;28;19926;-74
2023/07/19 09:51:32;;;;;;;;;;;25.00;53.00;;;;;;4976785;28;19930;-75
2023/07/19 09:54:00;;;;;;;;;;;25.10;52.80;;;;;;4984538;28;19973;-75
2023/07/19 09:56:28;;;;;;;;;;;25.10;52.60;;;;;;4981427;28;19937;-75
2023/07/19 09:58:55;;;;;;;;;;;25.10;52.60;;;;;;4982080;28;19941;-75
2023/07/19 10:01:22;;;;;;;;;;;25.20;52.10;;;;;;4981497;28;20413;-75
2023/07/19 10:03:51;;;;;;;;;;;25.30;51.90;;;;;;4981399;28;20211;-75
2023/07/19 10:06:17;;;;;;;;;;;25.30;51.60;;;;;;4983005;28;19937;-75
2023/07/19 10:08:44;;;;;;;;;;;25.40;51.40;;;;;;4984512;28;19934;-76
2023/07/19 10:11:21;;;;;;;;;;;25.40;51.20;;;;;;4987062;28;19929;-75
2023/07/19 10:13:56;;;;;;;;;;;25.50;51.20;;;;;;4983235;28;19926;-75
2023/07/19 10:16:24;;;;;;;;;;;25.60;51.30;;;;;;4982429;28;19934;-75
2023/07/19 10:19:05;;;;;;;;;;;25.70;51.30;;;;;;4981911;28;20013;-74
2023/07/19 10:21:32;;;;;;;;;;;25.70;50.70;;;;;;4983738;28;20459;-75
2023/07/19 10:24:05;;;;;;;;;;;25.80;50.80;;;;;;4984679;28;19937;-75
2023/07/19 10:26:31;;;;;;;;;;;25.80;50.80;;;;;;4976435;28;19937;-75
2023/07/19 10:29:01;;;;;;;;;;;25.90;50.80;;;;;;4979027;28;19937;-75
2023/07/19 10:31:28;;;;;;;;;;;25.90;50.60;;;;;;4975455;28;20369;-75
2023/07/19 10:33:55;;;;;;;;;;;26.00;50.60;;;;;;4980193;28;19965;-76
2023/07/19 10:36:21;;;;;;;;;;;26.10;50.40;;;;;;4981149;28;19930;-75
2023/07/19 10:38:48;;;;;;;;;;;26.10;50.20;;;;;;4984977;28;19962;-74
2023/07/19 10:41:15;;;;;;;;;;;26.20;49.70;;;;;;4982652;28;19930;-75
2023/07/19 10:43:42;;;;;;;;;;;26.30;49.50;;;;;;4983500;28;19930;-75
2023/07/19 10:46:10;;;;;;;;;;;26.30;49.60;;;;;;4982074;28;19934;-75
2023/07/19 10:48:37;;;;;;;;;;;26.40;49.70;;;;;;4978217;28;19929;-75
2023/07/19 10:51:04;;;;;;;;;;;26.40;49.50;;;;;;4986338;28;20289;-75
2023/07/19 10:53:40;;;;;;;;;;;26.40;49.30;;;;;;4988214;28;19933;-76
2023/07/19 10:56:06;;;;;;;;;;;26.60;48.60;;;;;;4985844;28;19973;-75
2023/07/19 10:58:33;;;;;;;;;;;26.60;48.50;;;;;;4979452;28;19929;-75
2023/07/19 11:00:59;;;;;;;;;;;26.70;48.60;;;;;;4984359;28;19952;-75
2023/07/19 11:03:27;;;;;;;;;;;26.70;48.50;;;;;;4980380;28;19930;-76
2023/07/19 11:05:54;;;;;;;;;;;26.80;48.40;;;;;;4981349;28;19941;-76
2023/07/19 11:08:21;;;;;;;;;;;26.90;48.60;;;;;;4983545;28;19930;-76
2023/07/19 11:10:48;;;;;;;;;;;26.90;48.40;;;;;;4983157;28;19941;-76
2023/07/19 11:13:15;;;;;;;;;;;26.90;48.30;;;;;;4987834;28;20360;-76
2023/07/19 11:15:42;;;;;;;;;;;27.00;48.20;;;;;;4987387;28;19944;-76
2023/07/19 11:18:09;;;;;;;;;;;27.10;48.10;;;;;;4987086;28;19933;-76
2023/07/19 11:20:39;;;;;;;;;;;27.10;48.10;;;;;;4985787;28;20319;-76
2023/07/19 11:23:07;;;;;;;;;;;27.20;48.00;;;;;;4987235;28;19977;-76
2023/07/19 11:25:34;;;;;;;;;;;27.20;47.60;;;;;;4984634;28;19936;-76
2023/07/19 11:28:01;;;;;;;;;;;27.30;47.60;;;;;;4979599;28;20008;-76
2023/07/19 11:30:36;;;;;;;;;;;27.30;47.50;;;;;;4988235;28;19930;-76
2023/07/19 11:33:02;;;;;;;;;;;27.30;47.40;;;;;;4976356;28;20547;-76
2023/07/19 11:35:29;;;;;;;;;;;27.40;47.20;;;;;;4978316;28;19938;-74
2023/07/19 11:37:57;;;;;;;;;;;27.40;47.30;;;;;;4982978;28;19930;-76
2023/07/19 11:40:24;;;;;;;;;;;27.50;47.10;;;;;;4987034;28;20781;-76
2023/07/19 11:42:53;;;;;;;;;;;27.50;46.90;;;;;;4983872;28;20553;-76
2023/07/19 11:45:21;;;;;;;;;;;27.60;47.00;;;;;;4986634;28;20551;-76
2023/07/19 11:47:49;;;;;;;;;;;27.60;46.40;;;;;;4983701;28;19933;-76
2023/07/19 11:50:15;;;;;;;;;;;27.70;46.40;;;;;;4987040;28;19938;-76
2023/07/19 11:52:46;;;;;;;;;;;27.70;46.60;;;;;;4975613;28;19929;-76
2023/07/19 11:55:15;;;;;;;;;;;27.70;47.20;;;;;;4982572;28;20404;-76
2023/07/19 11:57:42;;;;;;;;;;;27.70;47.40;;;;;;4986569;28;19984;-76
2023/07/19 12:00:10;;;;;;;;;;;27.70;47.30;;;;;;4983387;28;19930;-75
2023/07/19 12:02:36;;;;;;;;;;;27.70;46.80;;;;;;4976898;28;19930;-75
2023/07/19 12:05:04;;;;;;;;;;;27.70;46.80;;;;;;4979071;28;19941;-76
2023/07/19 12:07:31;;;;;;;;;;;27.70;46.80;;;;;;4991115;28;19931;-76
2023/07/19 12:09:57;;;;;;;;;;;27.70;47.00;;;;;;4983449;28;19929;-76
2023/07/19 12:12:25;;;;;;;;;;;27.70;47.00;;;;;;4982488;28;19981;-75
2023/07/19 12:14:52;;;;;;;;;;;27.70;47.80;;;;;;4985906;28;20000;-76
2023/07/19 12:17:19;;;;;;;;;;;27.70;49.30;;;;;;4985104;28;19930;-75
2023/07/19 12:19:45;;;;;;;;;;;27.70;49.80;;;;;;4986212;28;19988;-76
2023/07/19 12:22:12;;;;;;;;;;;27.70;50.10;;;;;;4987024;28;19929;-76
2023/07/19 12:24:38;;;;;;;;;;;27.70;51.80;;;;;;4982191;28;19953;-75
2023/07/19 12:27:05;;;;;;;;;;;27.70;52.20;;;;;;4990137;28;19929;-76
2023/07/19 12:29:33;;;;;;;;;;;27.60;52.10;;;;;;4986940;28;19929;-76
2023/07/19 12:31:59;;;;;;;;;;;27.60;52.10;;;;;;4986015;28;19937;-76
2023/07/19 12:34:28;;;;;;;;;;;27.60;52.30;;;;;;4983570;28;20017;-75
2023/07/19 12:36:54;;;;;;;;;;;27.60;51.90;;;;;;4985803;28;19930;-76
2023/07/19 12:39:24;;;;;;;;;;;27.60;52.50;;;;;;4984673;28;19938;-75
2023/07/19 12:41:52;;;;;;;;;;;27.60;53.00;;;;;;4983186;28;19938;-76
2023/07/19 12:44:19;;;;;;;;;;;27.60;53.10;;;;;;4982369;28;19987;-75
2023/07/19 12:46:48;;;;;;;;;;;27.50;53.20;;;;;;4983731;28;19940;-76
2023/07/19 12:49:15;;;;;;;;;;;27.60;52.90;;;;;;4985860;28;20278;-75
2023/07/19 12:51:42;;;;;;;;;;;27.60;53.40;;;;;;4985214;28;19936;-76
2023/07/19 12:54:09;;;;;;;;;;;27.60;53.50;;;;;;4985964;28;19973;-76
2023/07/19 12:56:36;;;;;;;;;;;27.60;54.00;;;;;;4983599;28;19930;-76
2023/07/19 12:59:02;;;;;;;;;;;27.60;54.30;;;;;;4981971;28;19930;-77
2023/07/19 13:01:29;;;;;;;;;;;27.60;54.30;;;;;;4982147;28;19938;-76
2023/07/19 13:03:57;;;;;;;;;;;27.60;54.30;;;;;;4982483;28;19984;-75
2023/07/19 13:06:23;;;;;;;;;;;27.60;54.70;;;;;;4990656;28;19937;-76
2023/07/19 13:08:50;;;;;;;;;;;27.60;54.50;;;;;;4986105;28;19937;-76
2023/07/19 13:11:17;;;;;;;;;;;27.70;54.60;;;;;;4985259;28;19934;-77
2023/07/19 13:13:44;;;;;;;;;;;27.70;54.80;;;;;;4982310;28;19984;-76
2023/07/19 13:16:11;;;;;;;;;;;27.70;55.00;;;;;;4983360;28;19980;-76
2023/07/19 13:18:37;;;;;;;;;;;27.70;54.90;;;;;;4980539;28;19937;-75
2023/07/19 13:21:05;;;;;;;;;;;27.80;55.00;;;;;;4984286;28;19977;-76
2023/07/19 13:23:32;;;;;;;;;;;27.80;54.80;;;;;;4985708;28;19933;-77
2023/07/19 13:25:59;;;;;;;;;;;27.80;54.90;;;;;;4982944;28;19941;-77
2023/07/19 13:28:25;;;;;;;;;;;27.80;55.00;;;;;;4989634;28;19937;-76
2023/07/19 13:30:52;;;;;;;;;;;27.90;55.00;;;;;;4986918;28;19972;-76
2023/07/19 13:33:18;;;;;;;;;;;27.90;55.20;;;;;;4981717;28;19926;-76
2023/07/19 13:35:45;;;;;;;;;;;27.80;55.10;;;;;;4978981;28;19930;-75
2023/07/19 13:38:13;;;;;;;;;;;27.90;55.30;;;;;;4983933;28;19976;-76
2023/07/19 13:40:39;;;;;;;;;;;27.90;55.10;;;;;;4982897;28;20343;-76
2023/07/19 13:43:08;;;;;;;;;;;27.90;55.00;;;;;;4979881;28;19933;-76
2023/07/19 13:45:34;;;;;;;;;;;27.90;54.90;;;;;;4976515;28;20434;-76
2023/07/19 13:48:01;;;;;;;;;;;27.90;54.40;;;;;;4984353;28;20693;-76
2023/07/19 13:50:27;;;;;;;;;;;27.90;54.20;;;;;;4972154;28;20623;-76
2023/07/19 13:52:54;;;;;;;;;;;27.90;54.50;;;;;;4984459;28;20630;-76
2023/07/19 13:55:22;;;;;;;;;;;27.90;54.50;;;;;;4983771;28;19984;-77
2023/07/19 13:57:48;;;;;;;;;;;28.00;54.70;;;;;;4983862;28;19937;-76
2023/07/19 14:00:15;;;;;;;;;;;28.00;54.90;;;;;;4981646;28;19930;-76
2023/07/19 14:02:43;;;;;;;;;;;28.00;55.00;;;;;;4975751;28;20507;-76
2023/07/19 14:05:10;;;;;;;;;;;28.00;55.00;;;;;;4975898;28;19980;-76
2023/07/19 14:07:36;;;;;;;;;;;28.00;54.40;;;;;;4984698;28;19930;-76
2023/07/19 14:10:04;;;;;;;;;;;28.00;53.90;;;;;;4984790;28;20000;-76
2023/07/19 14:12:32;;;;;;;;;;;28.00;54.00;;;;;;4985118;28;19930;-76
2023/07/19 14:14:59;;;;;;;;;;;28.10;53.60;;;;;;4980962;28;19933;-76